Time;durP1;ratioP1;P1;durP2;ratioP2;P2;SDS_P1;SDS_P2;PMS_P1;PMS_P2;Temp;Humidity;BMP_temperature;BMP_pressure;BME280_temperature;BME280_humidity;BME280_pressure;Samples;Min_cycle;Max_cycle;Signal;HPM_P1;HPM_P2
2023/12/21 00:02:17;;;;;;;5.80;3.10;;;6.70;57.00;;;5.34;100.00;100277.91;4965247;28;20046;-76
2023/12/21 00:04:45;;;;;;;7.18;2.70;;;6.60;58.00;;;5.34;100.00;100291.81;4988691;28;20045;-76
2023/12/21 00:07:12;;;;;;;4.55;2.63;;;6.70;56.20;;;5.35;100.00;100280.50;4972811;28;20068;-75
2023/12/21 00:09:39;;;;;;;4.00;2.70;;;6.70;55.90;;;5.35;100.00;100293.53;4973302;28;20041;-76
2023/12/21 00:12:06;;;;;;;4.32;2.83;;;6.70;54.40;;;5.20;100.00;100273.59;4988960;28;20548;-76
2023/12/21 00:14:33;;;;;;;7.05;2.58;;;7.50;55.20;;;5.32;100.00;100297.91;4988737;28;20141;-76
2023/12/21 00:17:00;;;;;;;5.30;2.60;;;6.60;55.40;;;5.43;100.00;100305.69;4956350;28;20757;-75
2023/12/21 00:19:27;;;;;;;9.40;2.97;;;7.20;55.20;;;5.31;100.00;100286.59;4972831;28;20065;-76
2023/12/21 00:21:55;;;;;;;4.70;2.30;;;6.80;55.00;;;5.40;100.00;100311.78;4988903;28;20042;-76
2023/12/21 00:24:22;;;;;;;5.63;3.10;;;6.70;53.00;;;5.56;100.00;100327.41;4988609;28;20041;-75
2023/12/21 00:26:49;;;;;;;8.60;2.70;;;6.70;55.00;;;5.42;100.00;100317.03;4972418;28;20058;-76
2023/12/21 00:29:16;;;;;;;4.50;2.78;;;6.70;56.90;;;5.31;100.00;100325.75;4972488;28;20104;-76
2023/12/21 00:31:43;;;;;;;4.68;2.50;;;6.70;59.00;;;5.35;100.00;100284.84;4988927;28;20065;-75
2023/12/21 00:34:10;;;;;;;4.90;2.17;;;6.60;58.60;;;5.40;100.00;100301.34;4988401;28;20488;-75
2023/12/21 00:36:37;;;;;;;3.63;2.20;;;6.70;57.90;;;5.43;100.00;100300.50;4988243;28;20394;-76
2023/12/21 00:39:05;;;;;;;4.85;2.72;;;6.60;57.60;;;5.42;100.00;100296.13;4972480;28;20057;-76
2023/12/21 00:41:32;;;;;;;8.02;2.60;;;6.70;58.20;;;5.39;100.00;100292.69;4989186;28;20057;-75
2023/12/21 00:43:59;;;;;;;3.05;2.38;;;6.60;57.00;;;5.34;100.00;100263.09;4988369;28;20178;-76
2023/12/21 00:46:26;;;;;;;4.57;2.50;;;6.70;56.20;;;5.42;100.00;100275.25;4980255;28;20092;-76
2023/12/21 00:48:53;;;;;;;4.47;3.13;;;6.70;54.20;;;5.42;100.00;100263.06;4988593;28;20060;-76
2023/12/21 00:51:20;;;;;;;2.83;1.80;;;6.70;55.20;;;5.57;100.00;100261.25;4972741;28;20467;-76
2023/12/21 00:53:47;;;;;;;4.18;2.38;;;6.80;50.40;;;5.39;100.00;100232.66;5004676;28;20042;-76
2023/12/21 00:56:14;;;;;;;4.82;2.00;;;6.70;50.20;;;5.59;100.00;100244.72;4972008;28;20489;-76
2023/12/21 00:58:41;;;;;;;4.38;2.72;;;6.80;47.10;;;5.53;100.00;100218.66;4989882;28;20397;-76
2023/12/21 01:01:08;;;;;;;7.07;2.33;;;6.80;47.00;;;5.59;100.00;100236.03;4975824;28;20061;-76
2023/12/21 01:03:35;;;;;;;6.03;2.58;;;6.80;47.30;;;5.43;100.00;100206.53;4975817;28;20054;-77
2023/12/21 01:06:02;;;;;;;3.15;2.08;;;6.80;48.30;;;5.41;100.00;100184.81;4973911;28;20078;-76
2023/12/21 01:08:30;;;;;;;3.85;2.45;;;6.80;48.20;;;5.33;100.00;100175.28;4986025;28;20419;-76
2023/12/21 01:10:57;;;;;;;3.28;2.10;;;6.70;47.20;;;5.38;100.00;100188.28;5009655;28;20148;-77
2023/12/21 01:13:24;;;;;;;4.78;2.55;;;6.80;46.90;;;5.54;100.00;100202.09;4975649;28;20034;-77
2023/12/21 01:15:52;;;;;;;4.00;2.45;;;6.80;47.10;;;5.53;100.00;100196.03;4991162;28;20050;-76
2023/12/21 01:18:19;;;;;;;3.38;2.33;;;6.80;46.40;;;5.66;100.00;100189.00;4992546;28;20034;-77
2023/12/21 01:20:46;;;;;;;7.65;3.95;;;6.80;44.80;;;5.50;100.00;100161.25;4975979;28;20061;-76
2023/12/21 01:23:13;;;;;;;4.15;2.03;;;6.80;43.80;;;5.61;100.00;100190.78;5008937;28;20041;-77
2023/12/21 01:25:40;;;;;;;4.03;2.13;;;6.80;44.10;;;5.60;100.00;100199.47;4980278;28;20560;-77
2023/12/21 01:28:07;;;;;;;2.25;1.83;;;6.80;43.90;;;5.59;100.00;100195.13;4992037;28;20497;-77
2023/12/21 01:30:37;;;;;;;4.13;2.03;;;6.80;43.50;;;5.61;100.00;100210.78;4992098;28;20046;-77
2023/12/21 01:33:04;;;;;;;4.07;1.98;;;7.10;44.80;;;5.58;100.00;100193.41;5002239;28;20039;-76
2023/12/21 01:35:31;;;;;;;2.67;1.80;;;6.80;43.60;;;5.47;100.00;100167.38;4984831;28;20052;-77
2023/12/21 01:37:58;;;;;;;3.28;1.85;;;6.80;45.00;;;5.45;100.00;100168.25;4991224;28;20154;-76
2023/12/21 01:40:25;;;;;;;5.22;2.17;;;6.80;45.00;;;5.52;100.00;100191.69;4985111;28;20144;-76
2023/12/21 01:42:52;;;;;;;2.83;2.10;;;6.80;47.60;;;5.36;100.00;100164.81;4983259;28;20632;-76
2023/12/21 01:45:19;;;;;;;4.78;2.97;;;6.80;48.80;;;5.51;100.00;100166.47;4982571;28;20046;-77
2023/12/21 01:47:47;;;;;;;3.42;2.15;;;6.80;47.00;;;5.47;100.00;100128.25;4975624;28;20511;-78
2023/12/21 01:50:14;;;;;;;2.97;2.10;;;6.80;46.00;;;5.59;100.00;100161.22;4977942;28;20034;-78
2023/12/21 01:52:42;;;;;;;4.03;2.08;;;6.80;47.30;;;5.50;100.00;100159.53;4994041;28;20480;-78
2023/12/21 01:55:11;;;;;;;4.45;1.67;;;6.80;47.70;;;5.52;100.00;100138.63;4974878;28;20082;-78
2023/12/21 01:57:39;;;;;;;5.55;2.10;;;6.80;50.10;;;5.52;100.00;100126.44;4992421;28;20512;-78
2023/12/21 02:00:07;;;;;;;3.42;2.03;;;6.80;48.60;;;5.54;100.00;100123.81;4993874;28;20050;-78
2023/12/21 02:02:34;;;;;;;3.97;1.92;;;6.90;49.70;;;5.48;100.00;100106.47;4992918;28;20505;-78
2023/12/21 02:05:01;;;;;;;3.05;1.95;;;6.80;51.70;;;5.41;100.00;100115.22;4992688;28;20515;-78
2023/12/21 02:07:28;;;;;;;3.42;1.90;;;6.80;53.10;;;5.47;100.00;100117.81;5011441;28;20056;-78
2023/12/21 02:09:55;;;;;;;3.15;2.20;;;6.80;52.50;;;5.59;100.00;100131.63;4990638;28;20049;-77
2023/12/21 02:12:23;;;;;;;4.90;2.00;;;6.80;53.70;;;5.52;100.00;100122.97;4991180;28;20057;-77
2023/12/21 02:14:50;;;;;;;2.85;1.77;;;6.90;52.80;;;5.59;100.00;100109.00;4974113;28;20128;-77
2023/12/21 02:17:21;;;;;;;3.70;1.80;;;6.90;50.60;;;5.65;100.00;100136.81;4990913;28;20057;-77
2023/12/21 02:19:50;;;;;;;4.03;1.92;;;6.90;50.70;;;5.63;100.00;100095.03;4975128;28;20059;-76
2023/12/21 02:22:19;;;;;;;4.07;1.70;;;6.90;48.70;;;5.76;100.00;100101.03;4974713;28;20585;-77
2023/12/21 02:24:46;;;;;;;5.20;1.80;;;6.90;49.40;;;5.61;100.00;100077.66;4990756;28;20054;-76
2023/12/21 02:27:13;;;;;;;4.65;2.00;;;6.90;50.50;;;5.59;100.00;100069.84;4973454;28;20104;-76
2023/12/21 02:29:40;;;;;;;3.22;1.90;;;6.90;52.90;;;5.73;100.00;100100.19;4990858;28;20041;-76
2023/12/21 02:32:07;;;;;;;4.95;2.25;;;7.00;52.90;;;5.66;100.00;100073.28;4990707;28;20714;-76
2023/12/21 02:34:34;;;;;;;3.45;2.22;;;7.00;54.70;;;5.71;100.00;100078.47;4990248;28;20042;-77
2023/12/21 02:37:01;;;;;;;3.35;2.13;;;7.00;55.40;;;5.63;100.00;100075.94;4966039;28;20050;-77
2023/12/21 02:39:28;;;;;;;2.88;2.08;;;7.00;56.60;;;5.68;100.00;100072.38;4990843;28;20049;-77
2023/12/21 02:41:55;;;;;;;3.58;1.90;;;6.90;59.40;;;5.78;100.00;100081.00;4990376;28;20497;-77
2023/12/21 02:44:22;;;;;;;2.63;1.80;;;7.00;61.40;;;5.80;100.00;100094.03;4974157;28;20484;-76
2023/12/21 02:46:49;;;;;;;1.98;1.60;;;7.00;63.20;;;5.68;100.00;100048.88;4990329;28;20042;-76
2023/12/21 02:49:20;;;;;;;2.22;2.03;;;6.90;67.30;;;5.67;100.00;100047.16;4990405;28;20044;-76
2023/12/21 02:51:47;;;;;;;4.93;2.20;;;7.00;68.00;;;5.74;100.00;100031.44;4982675;28;20035;-76
2023/12/21 02:54:14;;;;;;;5.22;2.35;;;7.00;71.30;;;5.57;100.00;100010.72;4989375;28;20053;-75
2023/12/21 02:56:41;;;;;;;4.90;2.30;;;6.90;74.30;;;5.64;100.00;100023.69;4976913;28;20057;-76
2023/12/21 02:59:08;;;;;;;3.50;2.22;;;6.90;75.10;;;5.78;100.00;100047.06;4973907;28;20324;-77
2023/12/21 03:01:41;;;;;;;2.92;2.05;;;7.60;75.30;;;5.67;100.00;100052.38;5007941;28;20149;-77
2023/12/21 03:04:12;;;;;;;4.30;2.00;;;7.00;75.70;;;5.73;100.00;100059.28;4990479;28;20049;-77
2023/12/21 03:06:39;;;;;;;3.72;2.25;;;7.00;76.50;;;5.77;100.00;100062.75;5007580;28;20444;-77
2023/12/21 03:09:06;;;;;;;4.55;2.05;;;6.90;76.80;;;5.74;100.00;100042.75;5007743;28;20376;-76
2023/12/21 03:11:33;;;;;;;4.05;2.10;;;7.00;76.50;;;5.82;100.00;100042.66;4957067;28;20124;-77
2023/12/21 03:14:00;;;;;;;2.00;1.65;;;7.00;76.80;;;5.65;100.00;100017.59;5004036;28;20104;-77
2023/12/21 03:16:27;;;;;;;2.20;1.70;;;7.00;75.70;;;5.77;100.00;100036.63;4982791;28;20120;-77
2023/12/21 03:18:54;;;;;;;2.17;1.75;;;7.00;75.90;;;5.85;100.00;100044.38;4990386;28;20041;-76
2023/12/21 03:21:21;;;;;;;4.82;1.85;;;7.00;75.10;;;5.68;100.00;100021.91;4973583;28;20574;-77
2023/12/21 03:23:48;;;;;;;3.03;1.92;;;7.00;74.40;;;5.86;100.00;100036.56;4984507;28;20050;-76
2023/12/21 03:26:15;;;;;;;2.05;1.70;;;7.00;71.90;;;5.81;100.00;100040.94;4998462;28;20139;-77
2023/12/21 03:28:44;;;;;;;2.00;1.70;;;7.10;72.70;;;5.87;100.00;100042.63;4989701;28;20867;-77
2023/12/21 03:31:15;;;;;;;4.10;1.92;;;7.10;70.70;;;5.82;100.00;100035.72;4997583;28;20050;-77
2023/12/21 03:33:42;;;;;;;;;;;7.10;74.80;;;5.76;100.00;100014.88;4977164;28;20074;-77
2023/12/21 03:36:12;;;;;;;2.33;1.98;;;7.00;74.30;;;5.84;100.00;100024.38;4985628;28;19925;-77
2023/12/21 03:38:39;;;;;;;3.72;2.50;;;7.10;76.20;;;5.71;100.00;99997.53;4964478;28;20471;-76
2023/12/21 03:41:07;;;;;;;4.50;1.88;;;7.10;74.90;;;5.83;100.00;100005.22;5005572;28;20045;-76
2023/12/21 03:43:35;;;;;;;2.00;1.80;;;6.90;75.40;;;5.79;100.00;100006.16;4971139;28;20073;-76
2023/12/21 03:46:02;;;;;;;2.10;1.67;;;7.00;75.80;;;5.73;100.00;99993.16;5006402;28;20473;-76
2023/12/21 03:48:29;;;;;;;3.53;1.90;;;7.00;76.00;;;5.78;100.00;99989.63;4989377;28;20045;-74
2023/12/21 03:50:56;;;;;;;1.70;1.60;;;7.10;75.00;;;5.88;100.00;99969.50;4988660;28;20110;-76
2023/12/21 03:53:23;;;;;;;2.38;1.88;;;7.10;74.40;;;5.99;100.00;99998.13;4989258;28;20073;-76
2023/12/21 03:55:50;;;;;;;5.28;2.38;;;7.10;72.80;;;5.85;100.00;99990.41;5005735;28;20045;-74
2023/12/21 03:58:17;;;;;;;2.55;1.77;;;7.10;72.10;;;5.76;100.00;99964.41;4972797;28;20056;-73
2023/12/21 04:00:44;;;;;;;3.20;1.60;;;7.10;71.80;;;5.99;100.00;99997.22;4989206;28;20045;-74
2023/12/21 04:03:11;;;;;;;2.70;2.22;;;7.20;71.90;;;5.90;100.00;99967.75;5006932;28;20100;-77
2023/12/21 04:05:39;;;;;;;2.95;1.85;;;7.10;70.00;;;6.01;100.00;99970.25;5006182;28;20499;-77
2023/12/21 04:08:07;;;;;;;2.53;2.10;;;7.20;70.70;;;5.84;100.00;99941.69;4988918;28;20088;-74
2023/12/21 04:10:34;;;;;;;1.67;1.58;;;8.10;73.70;;;5.91;100.00;99964.25;4972828;28;20113;-74
2023/12/21 04:13:01;;;;;;;3.42;1.70;;;7.20;74.10;;;5.94;100.00;99947.69;5006611;28;20041;-76
2023/12/21 04:15:28;;;;;;;3.60;1.77;;;7.10;74.60;;;5.93;100.00;99940.72;4987925;28;20045;-77
2023/12/21 04:17:55;;;;;;;3.22;2.13;;;7.20;74.90;;;5.88;100.00;99939.91;4989179;28;20157;-76
2023/12/21 04:20:22;;;;;;;4.43;1.50;;;7.20;76.10;;;6.02;100.00;99956.31;4989320;28;20049;-77
2023/12/21 04:22:49;;;;;;;5.50;3.22;;;7.20;75.70;;;5.94;100.00;99939.84;5006982;28;20108;-77
2023/12/21 04:25:17;;;;;;;2.10;1.90;;;8.10;77.80;;;5.95;100.00;99933.75;4984392;28;20112;-74
2023/12/21 04:27:44;;;;;;;1.90;1.70;;;7.20;76.20;;;5.83;100.00;99911.22;4988945;28;20070;-73
2023/12/21 04:30:11;;;;;;;1.50;1.40;;;7.20;75.00;;;6.07;100.00;99941.44;5006346;28;20073;-74
2023/12/21 04:32:40;;;;;;;1.98;1.60;;;7.30;73.60;;;6.14;100.00;99941.38;4987537;28;20042;-76
2023/12/21 04:35:10;;;;;;;1.60;1.50;;;7.40;70.80;;;6.02;100.00;99914.53;4988512;28;20043;-76
2023/12/21 04:37:37;;;;;;;2.15;1.60;;;7.50;71.90;;;6.09;100.00;99929.25;5010636;28;20053;-76
2023/12/21 04:40:05;;;;;;;1.45;1.35;;;7.30;70.70;;;5.90;100.00;99910.28;4990675;28;20038;-76
2023/12/21 04:42:32;;;;;;;2.88;1.42;;;7.20;70.60;;;5.98;100.00;99918.03;4993243;28;20052;-76
2023/12/21 04:44:59;;;;;;;1.88;1.42;;;7.20;72.20;;;5.90;100.00;99884.19;5009828;28;20050;-75
2023/12/21 04:47:27;;;;;;;1.98;1.38;;;7.30;68.40;;;6.02;100.00;99893.63;4972761;28;20056;-75
2023/12/21 04:49:54;;;;;;;2.00;1.30;;;7.20;70.00;;;5.98;100.00;99884.09;5009776;28;20053;-75
2023/12/21 04:52:21;;;;;;;2.65;1.38;;;7.20;69.60;;;5.98;100.00;99878.88;5001899;28;20146;-77
2023/12/21 04:54:48;;;;;;;1.30;1.20;;;7.30;70.00;;;6.03;100.00;99855.34;4994521;28;20405;-77
2023/12/21 04:57:15;;;;;;;3.58;1.50;;;7.30;66.70;;;6.02;100.00;99864.91;4976910;28;20046;-76
2023/12/21 04:59:47;;;;;;;2.55;1.33;;;7.30;66.70;;;5.96;100.00;99865.81;4993822;28;20141;-77
2023/12/21 05:02:14;;;;;;;3.70;1.40;;;8.40;68.00;;;6.16;100.00;99895.19;4990280;28;20070;-77
2023/12/21 05:04:41;;;;;;;2.85;1.55;;;7.30;65.50;;;6.18;100.00;99873.41;4989496;28;20643;-75
2023/12/21 05:07:10;;;;;;;2.50;2.13;;;7.40;64.50;;;6.19;100.00;99879.47;4991404;28;20048;-77
2023/12/21 05:09:37;;;;;;;1.75;1.33;;;7.50;67.40;;;6.19;100.00;99856.84;5009160;28;20531;-76
2023/12/21 05:12:05;;;;;;;2.65;1.42;;;7.60;66.80;;;6.28;100.00;99878.50;4992900;28;20715;-77
2023/12/21 05:14:32;;;;;;;1.77;1.33;;;7.60;59.90;;;6.35;100.00;99883.59;4995910;28;20133;-77
2023/12/21 05:17:00;;;;;;;1.40;1.30;;;7.60;57.50;;;6.39;100.00;99876.59;4981026;28;20109;-77
2023/12/21 05:19:26;;;;;;;2.45;1.65;;;7.60;61.00;;;6.33;100.00;99845.34;4971993;28;20085;-76
2023/12/21 05:21:53;;;;;;;1.70;1.30;;;7.70;53.60;;;6.39;100.00;99882.66;4991137;28;20069;-80
2023/12/21 05:24:20;;;;;;;2.83;1.38;;;7.60;55.10;;;6.42;100.00;99863.47;4984537;28;20050;-77
2023/12/21 05:26:47;;;;;;;1.42;1.30;;;7.60;57.60;;;6.34;100.00;99852.28;4976606;28;20148;-76
2023/12/21 05:29:15;;;;;;;1.70;1.52;;;7.60;59.20;;;6.32;100.00;99844.47;4989271;28;20038;-77
2023/12/21 05:31:42;;;;;;;4.05;1.30;;;7.60;59.70;;;6.25;100.00;99835.00;4959441;28;20412;-78
2023/12/21 05:34:09;;;;;;;13.02;10.35;;;7.50;61.60;;;6.35;100.00;99827.88;4972987;28;20042;-77
2023/12/21 05:36:37;;;;;;;1.98;1.40;;;7.60;63.10;;;6.42;100.00;99818.19;4985050;28;20445;-77
2023/12/21 05:39:04;;;;;;;1.42;1.27;;;7.50;63.30;;;6.23;100.00;99803.66;5000826;28;20052;-77
2023/12/21 05:41:44;;;;;;;2.35;1.75;;;7.50;63.40;;;6.22;100.00;99804.56;4976152;28;20103;-77
2023/12/21 05:44:12;;;;;;;1.25;1.15;;;7.50;64.20;;;6.39;100.00;99847.84;4991834;28;20060;-77
2023/12/21 05:46:40;;;;;;;1.42;1.33;;;7.60;65.00;;;6.33;100.00;99808.75;4975404;28;20057;-77
2023/12/21 05:49:07;;;;;;;1.30;1.20;;;7.60;63.40;;;6.28;100.00;99821.00;4989529;28;20038;-77
2023/12/21 05:51:34;;;;;;;2.03;1.60;;;7.60;64.70;;;6.30;100.00;99801.81;4974998;28;20396;-77
2023/12/21 05:54:02;;;;;;;1.50;1.40;;;7.50;64.60;;;6.27;100.00;99782.72;4985420;28;20037;-77
2023/12/21 05:56:30;;;;;;;1.38;1.25;;;7.60;64.90;;;6.34;100.00;99794.81;4976153;28;20057;-77
2023/12/21 05:58:57;;;;;;;2.78;1.65;;;7.60;64.30;;;6.33;100.00;99804.38;4972079;28;21049;-78
2023/12/21 06:01:24;;;;;;;1.33;1.23;;;7.60;64.30;;;6.26;100.00;99781.84;4977927;28;20049;-77
2023/12/21 06:03:51;;;;;;;1.40;1.30;;;7.60;64.20;;;6.43;100.00;99788.56;4978007;28;20050;-76
2023/12/21 06:06:18;;;;;;;1.88;1.30;;;7.60;65.20;;;6.39;100.00;99791.19;4992589;28;20100;-77
2023/12/21 06:08:45;;;;;;;1.50;1.40;;;7.60;62.40;;;6.33;100.00;99780.00;4964207;28;20505;-77
2023/12/21 06:11:12;;;;;;;1.42;1.17;;;7.60;63.40;;;6.37;100.00;99772.06;4971966;28;20039;-77
2023/12/21 06:13:39;;;;;;;1.77;1.40;;;7.60;62.00;;;6.50;100.00;99783.22;4980161;28;20142;-77
2023/12/21 06:16:11;;;;;;;1.10;1.10;;;7.60;62.10;;;6.39;100.00;99782.50;5013850;28;20056;-78
2023/12/21 06:18:39;;;;;;;3.17;1.30;;;7.70;61.50;;;6.51;100.00;99779.72;4996789;28;20054;-77
2023/12/21 06:21:07;;;;;;;1.48;1.38;;;7.70;61.70;;;6.50;100.00;99790.19;4988730;28;20042;-77
2023/12/21 06:23:34;;;;;;;1.33;1.23;;;8.00;61.50;;;6.34;100.00;99750.38;5013624;28;20072;-77
2023/12/21 06:26:01;;;;;;;2.15;1.95;;;8.10;62.40;;;6.42;100.00;99755.47;5013527;28;20062;-77
2023/12/21 06:28:28;;;;;;;1.60;1.45;;;7.60;62.40;;;6.50;100.00;99770.16;4991028;28;20049;-77
2023/12/21 06:30:55;;;;;;;3.13;1.30;;;7.60;63.30;;;6.47;100.00;99764.09;4991719;28;20050;-77
2023/12/21 06:33:23;;;;;;;1.00;0.98;;;7.70;64.10;;;6.36;100.00;99741.59;4988517;28;20042;-77
2023/12/21 06:35:50;;;;;;;2.78;1.10;;;7.70;63.50;;;6.54;100.00;99773.53;4972037;28;20455;-77
2023/12/21 06:38:17;;;;;;;1.65;1.13;;;8.50;65.20;;;6.33;100.00;99732.97;4995751;28;20227;-77
2023/12/21 06:40:44;;;;;;;2.35;1.75;;;7.70;65.40;;;6.44;100.00;99767.63;4972139;28;20039;-77
2023/12/21 06:43:12;;;;;;;2.85;1.42;;;7.70;65.70;;;6.66;100.00;99764.66;4977345;28;20066;-77
2023/12/21 06:45:39;;;;;;;2.15;1.20;;;7.70;65.50;;;6.56;100.00;99774.41;4994355;28;20108;-78
2023/12/21 06:48:06;;;;;;;1.48;1.15;;;7.80;64.10;;;6.68;100.00;99778.56;5013044;28;20805;-77
2023/12/21 06:50:33;;;;;;;1.13;1.10;;;7.80;63.80;;;6.67;100.00;99761.16;4979299;28;20081;-77
2023/12/21 06:53:00;;;;;;;1.50;1.40;;;7.80;64.30;;;6.60;100.00;99734.25;4986083;28;20054;-77
2023/12/21 06:55:27;;;;;;;2.42;1.20;;;7.80;63.40;;;6.69;100.00;99759.38;4986499;28;20041;-78
2023/12/21 06:57:56;;;;;;;2.60;1.63;;;8.10;63.00;;;6.57;100.00;99726.47;4979222;28;20038;-77
2023/12/21 07:00:23;;;;;;;1.10;1.10;;;7.80;63.00;;;6.63;100.00;99731.56;4985235;28;20045;-77
2023/12/21 07:02:50;;;;;;;1.88;1.13;;;7.80;61.30;;;6.62;100.00;99726.38;4995073;28;20164;-77
2023/12/21 07:05:17;;;;;;;1.73;1.23;;;7.80;61.20;;;6.72;100.00;99734.94;4994504;28;20061;-77
2023/12/21 07:07:44;;;;;;;2.20;1.20;;;7.90;60.00;;;6.41;100.00;99664.91;4979232;28;20081;-77
2023/12/21 07:10:11;;;;;;;1.10;1.10;;;7.90;60.80;;;6.72;100.00;99704.41;4978671;28;20527;-76
2023/12/21 07:12:39;;;;;;;1.98;1.58;;;7.90;58.30;;;6.73;100.00;99703.50;4995532;28;20460;-78
2023/12/21 07:15:06;;;;;;;3.53;1.67;;;8.10;57.30;;;6.77;100.00;99699.94;4994416;28;20220;-78
2023/12/21 07:17:33;;;;;;;0.80;0.80;;;7.90;55.90;;;6.79;100.00;99690.34;4994753;28;20084;-78
2023/12/21 07:20:00;;;;;;;1.15;1.05;;;8.00;54.30;;;6.85;100.00;99705.00;4994493;28;20167;-78
2023/12/21 07:22:27;;;;;;;1.40;1.30;;;8.00;53.00;;;6.78;100.00;99685.97;4995021;28;20113;-78
2023/12/21 07:24:54;;;;;;;2.17;1.30;;;8.00;52.50;;;6.61;100.00;99682.81;4963359;28;20053;-77
2023/12/21 07:27:21;;;;;;;2.35;1.27;;;8.00;54.70;;;6.75;100.00;99691.25;4979198;28;20046;-78
2023/12/21 07:29:49;;;;;;;1.73;1.63;;;8.00;54.10;;;6.73;100.00;99687.81;4994931;28;20046;-78
2023/12/21 07:32:16;;;;;;;1.77;1.27;;;8.00;52.90;;;6.79;100.00;99692.94;4994502;28;20053;-78
2023/12/21 07:34:43;;;;;;;1.50;1.30;;;8.00;51.80;;;6.81;100.00;99687.66;4980116;28;20034;-77
2023/12/21 07:37:16;;;;;;;1.30;1.20;;;8.00;52.30;;;6.83;100.00;99687.66;4979866;28;20048;-77
2023/12/21 07:39:44;;;;;;;4.85;1.80;;;8.00;52.90;;;6.89;100.00;99695.38;4983642;28;20057;-78
2023/12/21 07:42:11;;;;;;;1.35;1.30;;;8.10;51.20;;;6.87;100.00;99665.78;5002052;28;20128;-77
2023/12/21 07:44:38;;;;;;;1.40;1.30;;;8.10;50.70;;;6.87;100.00;99652.69;5007072;28;20046;-77
2023/12/21 07:47:05;;;;;;;1.27;1.17;;;8.10;51.40;;;6.75;100.00;99640.75;4988172;28;20050;-78
2023/12/21 07:49:32;;;;;;;1.95;1.42;;;8.10;54.40;;;6.72;100.00;99609.44;5006193;28;20049;-78
2023/12/21 07:51:59;;;;;;;1.90;1.65;;;8.20;56.20;;;6.89;100.00;99635.22;4990718;28;20042;-78
2023/12/21 07:54:26;;;;;;;1.50;1.40;;;8.10;56.30;;;6.93;100.00;99655.19;5024525;28;20060;-77
2023/12/21 07:56:53;;;;;;;1.75;1.65;;;8.10;57.70;;;6.81;100.00;99623.19;4992677;28;20050;-77
2023/12/21 07:59:20;;;;;;;2.92;1.67;;;8.10;59.10;;;6.91;100.00;99675.28;5008009;28;20158;-78
2023/12/21 08:01:47;;;;;;;1.50;1.40;;;8.20;60.40;;;6.98;100.00;99631.53;4991095;28;20054;-78
2023/12/21 08:04:16;;;;;;;1.40;1.30;;;8.10;59.50;;;6.82;100.00;99608.34;4978933;28;20050;-78
2023/12/21 08:06:43;;;;;;;1.45;1.35;;;8.20;59.70;;;6.92;100.00;99633.41;4993296;28;20153;-78
2023/12/21 08:09:10;;;;;;;1.90;1.65;;;8.10;62.00;;;6.95;100.00;99654.25;4970788;28;20064;-78
2023/12/21 08:11:37;;;;;;;2.55;1.85;;;8.20;62.80;;;6.67;100.00;99602.53;4996420;28;20511;-78
2023/12/21 08:14:04;;;;;;;1.90;1.70;;;8.20;64.10;;;7.01;100.00;99642.81;4996041;28;20669;-78
2023/12/21 08:16:31;;;;;;;2.97;2.03;;;8.20;64.30;;;6.98;100.00;99681.25;4995623;28;20046;-78
2023/12/21 08:18:59;;;;;;;2.25;1.65;;;8.20;64.60;;;7.01;100.00;99645.44;4979836;28;20112;-78
2023/12/21 08:21:26;;;;;;;6.75;4.25;;;8.20;65.50;;;6.88;100.00;99623.03;4976065;28;20592;-78
2023/12/21 08:23:54;;;;;;;4.05;2.22;;;8.20;66.60;;;7.02;100.00;99648.88;4991729;28;20046;-78
2023/12/21 08:26:21;;;;;;;3.28;2.78;;;8.20;68.50;;;7.13;100.00;99691.38;4978757;28;20698;-78
2023/12/21 08:28:48;;;;;;;1.92;1.60;;;8.30;70.10;;;6.90;100.00;99629.09;4995651;28;20531;-78
2023/12/21 08:31:26;;;;;;;5.43;2.78;;;8.20;72.30;;;7.02;100.00;99634.06;4995684;28;20050;-78
2023/12/21 08:33:57;;;;;;;2.60;1.90;;;8.20;74.60;;;6.95;100.00;99619.41;4978908;28;20137;-78
2023/12/21 08:36:24;;;;;;;4.20;2.05;;;8.20;77.10;;;6.94;100.00;99625.50;4967522;28;20042;-78
2023/12/21 08:38:51;;;;;;;2.63;1.73;;;8.20;79.40;;;6.93;100.00;99600.25;5007144;28;20045;-78
2023/12/21 08:41:20;;;;;;;2.92;1.85;;;8.20;80.40;;;6.94;100.00;99607.19;4995309;28;20045;-79
2023/12/21 08:43:47;;;;;;;2.88;1.95;;;8.30;83.00;;;6.86;100.00;99619.59;4979026;28;20101;-78
2023/12/21 08:46:17;;;;;;;3.58;2.13;;;8.20;82.40;;;7.00;100.00;99635.88;4963790;28;20133;-78
2023/12/21 08:48:44;;;;;;;4.82;2.53;;;8.20;83.30;;;6.99;100.00;99615.84;4980203;28;20485;-79
2023/12/21 08:51:12;;;;;;;3.38;2.28;;;8.20;82.40;;;6.75;100.00;99585.84;4988451;28;20054;-78
2023/12/21 08:53:44;;;;;;;2.97;1.95;;;8.10;85.20;;;6.73;100.00;99545.78;4980994;28;20042;-79
2023/12/21 08:56:13;;;;;;;3.53;1.80;;;8.20;83.80;;;6.99;100.00;99579.22;4961673;28;20057;-80
2023/12/21 08:58:40;;;;;;;3.97;2.70;;;8.20;81.50;;;6.54;100.00;99486.03;4989549;28;20077;-81
2023/12/21 09:01:08;;;;;;;2.00;1.80;;;8.20;80.40;;;6.47;100.00;99469.63;4997844;28;20044;-80
2023/12/21 09:03:36;;;;;;;3.13;1.80;;;9.60;79.90;;;6.81;100.00;99533.41;4981934;28;20495;-79
2023/12/21 09:06:03;;;;;;;1.98;1.70;;;8.20;78.20;;;7.09;100.00;99564.19;4980967;28;20056;-80
2023/12/21 09:08:30;;;;;;;2.83;2.05;;;8.30;76.80;;;6.33;100.00;99443.81;4981223;28;20068;-80
2023/12/21 09:10:57;;;;;;;3.30;2.10;;;8.30;76.80;;;7.11;100.00;99592.94;4973644;28;20516;-80
2023/12/21 09:13:25;;;;;;;3.10;1.70;;;8.30;78.70;;;7.11;100.00;99553.69;4997397;28;20048;-80
2023/12/21 09:15:52;;;;;;;4.20;2.60;;;8.40;78.30;;;7.14;100.00;99556.22;4981843;28;20050;-80
2023/12/21 09:18:19;;;;;;;2.72;2.40;;;8.30;79.30;;;7.21;100.00;99532.50;4990522;28;20403;-81
2023/12/21 09:20:47;;;;;;;2.97;2.13;;;8.50;77.40;;;7.20;100.00;99515.09;4981955;28;20460;-79
2023/12/21 09:23:14;;;;;;;3.17;2.30;;;8.40;76.90;;;7.28;100.00;99503.56;4977215;28;20572;-80
2023/12/21 09:25:41;;;;;;;3.15;1.70;;;10.00;78.90;;;7.41;100.00;99551.22;4979841;28;20096;-80
2023/12/21 09:28:08;;;;;;;2.25;1.92;;;8.60;79.70;;;7.32;100.00;99498.22;4980927;28;20583;-80
2023/12/21 09:30:36;;;;;;;1.50;1.40;;;8.50;80.80;;;7.24;100.00;99532.44;4996771;28;20046;-81
2023/12/21 09:33:08;;;;;;;2.70;1.80;;;9.70;83.90;;;7.16;100.00;99559.66;4996937;28;20538;-80
2023/12/21 09:35:36;;;;;;;2.10;1.95;;;9.70;88.30;;;7.13;100.00;99496.97;4980964;28;20073;-81
2023/12/21 09:38:06;;;;;;;1.30;1.20;;;8.30;88.90;;;7.17;100.00;99503.81;4978661;28;20372;-80
2023/12/21 09:40:36;;;;;;;1.25;1.25;;;8.40;89.20;;;7.14;100.00;99527.44;4959301;28;20061;-80
2023/12/21 09:43:07;;;;;;;1.40;1.30;;;9.30;90.50;;;7.08;100.00;99490.06;4976989;28;20524;-80
2023/12/21 09:45:46;;;;;;;1.75;1.10;;;9.10;90.90;;;7.11;100.00;99472.59;4981824;28;20050;-81
2023/12/21 09:48:17;;;;;;;1.33;1.23;;;8.40;90.90;;;6.50;100.00;99387.69;4997027;28;20054;-78
2023/12/21 09:50:49;;;;;;;1.77;1.38;;;8.30;90.40;;;6.53;100.00;99383.28;4995863;28;20723;-79
2023/12/21 09:53:19;;;;;;;1.50;1.40;;;9.00;91.30;;;7.11;100.00;99468.19;4978911;28;20108;-79
2023/12/21 09:55:48;;;;;;;1.98;1.58;;;8.40;90.40;;;6.61;100.00;99385.72;4978318;28;20054;-80
2023/12/21 09:58:16;;;;;;;1.75;1.65;;;9.10;90.00;;;7.06;100.00;99423.00;4976355;28;20053;-78
2023/12/21 10:00:43;;;;;;;1.20;1.10;;;8.40;90.10;;;6.58;100.00;99358.78;4981660;28;20459;-79
2023/12/21 10:03:10;;;;;;;1.20;1.10;;;8.40;90.40;;;6.83;100.00;99366.03;4974440;28;20116;-80
2023/12/21 10:05:40;;;;;;;1.33;1.25;;;8.40;90.00;;;6.85;100.00;99359.84;4994119;28;20054;-81
2023/12/21 10:08:09;;;;;;;1.35;1.20;;;8.40;90.80;;;7.12;100.00;99390.59;4977924;28;20148;-81
2023/12/21 10:10:39;;;;;;;1.40;1.30;;;8.40;90.00;;;7.19;100.00;99400.00;4978480;28;20503;-80
2023/12/21 10:13:11;;;;;;;1.20;1.10;;;8.40;89.10;;;7.28;100.00;99414.59;4995585;28;20041;-79
2023/12/21 10:15:40;;;;;;;1.45;1.30;;;8.60;87.30;;;7.24;100.00;99388.50;4962479;28;20502;-81
2023/12/21 10:18:09;;;;;;;1.40;1.13;;;9.50;86.80;;;7.18;100.00;99365.16;4995512;28;20046;-81
2023/12/21 10:20:37;;;;;;;1.50;1.40;;;10.10;87.10;;;7.19;100.00;99360.75;4979033;28;20050;-81
2023/12/21 10:23:05;;;;;;;1.58;1.45;;;8.50;81.30;;;7.24;100.00;99367.59;4978165;28;20049;-81
2023/12/21 10:25:32;;;;;;;2.15;1.20;;;8.60;82.10;;;7.25;100.00;99344.88;4983143;28;20484;-80